Sioux Falls, SD

9:06 PM CDT on March 31, 2015 (GMT -0500)
Foss | | Change Station
CLOSE
Current Station
Airport
Location: Sioux Falls,
Elevation: 1427 ft
Nearby Weather Stations

Elev 1427 ft 43.58 °N, 96.75 °W | Updated 10 minutes ago

Partly Cloudy
Partly Cloudy
67 °F
Feels Like 67 °F
N
12
Wind Variable Wind from SSE

Today
High -- | Low -- °F
--% Chance of Precip.
Yesterday
High -- | Low -- °F
Precip. -- in
7:10 AM 7:52 PM
Waxing Gibbous, 90% visible
Pressure 29.79 in
Visibility 10.0 miles
Clouds Scattered Clouds 25000 ft
Dew Point 30 °F
Humidity 25%
Rainfall 0.00 in
Snow Depth Not available.
UV 0 out of 12
Pollen 6.20 out of 12
Air Quality Not available.
Flu Activity Not available.
METAR KFSD 010156Z 15010KT 10SM SCT250 19/M01 A2979 RMK AO2 SLP087 T01941011

More Conditions Fewer Conditions

Pressure 29.79 in
Visibility 10.0 miles
Clouds Scattered Clouds 25000 ft
Dew Point 30 °F
Humidity 25%
Rainfall 0.00 in
Snow Depth Not available.
UV 0 out of 12
Pollen 6.20 out of 12
Air Quality Not available.
Flu Activity Not available.
METAR KFSD 010156Z 15010KT 10SM SCT250 19/M01 A2979 RMK AO2 SLP087 T01941011

More Conditions Fewer Conditions

10-Day Weather Forecast

Almanac

Astronomy

Mar. 31, 2015 Rise Set
Actual Time
Civil Twilight
Nautical Twilight
Astronomical Twilight
Moon
Length of Visible Light
Length of Day
Tomorrow will be .
, % of the Moon is Illuminated

Today's Extremes

State Highs State Lows

Community

WunderPhotos

Upload Photos

1,809,869 photos uploaded!

WunderBlogs® & News

Nearby

Air Quality

  Air Quality AQ Index Pollutant
Not available.

Snow Depth

Station Depth Elevation

Earthquake Activity

City Distance Mag. Time & Date
Minimum magnitude displayed is 2.5.

Coastal Water Temperatures

Place Temperature

Stations

Nearby Weather Stations

Station Location Temp. Windchill Dew Point Humidity Wind Precip. Elev Updated Type